Time;durP1;ratioP1;P1;durP2;ratioP2;P2;SDS_P1;SDS_P2;PMS_P1;PMS_P2;Temp;Humidity;BMP_temperature;BMP_pressure;BME280_temperature;BME280_humidity;BME280_pressure;Samples;Min_cycle;Max_cycle;Signal;HPM_P1;HPM_P2
2022/04/17 00:01:02;;;;;;;12.52;11.68;;;;;;;;;;5075440;28;20031;-70
2022/04/17 00:03:28;;;;;;;13.57;11.93;;;;;;;;;;5055087;28;20431;-70
2022/04/17 00:05:54;;;;;;;12.77;11.73;;;;;;;;;;5064823;28;20024;-70
2022/04/17 00:08:20;;;;;;;12.52;11.63;;;;;;;;;;5068564;28;20044;-70
2022/04/17 00:10:47;;;;;;;12.30;11.50;;;;;;;;;;5076122;28;20193;-70
2022/04/17 00:13:14;;;;;;;12.68;11.77;;;;;;;;;;5073476;28;20043;-70
2022/04/17 00:15:40;;;;;;;12.77;11.77;;;;;;;;;;5071003;28;20593;-70
2022/04/17 00:18:06;;;;;;;11.95;11.10;;;;;;;;;;5084744;28;20042;-70
2022/04/17 00:20:32;;;;;;;12.80;11.82;;;;;;;;;;5055774;28;20442;-68
2022/04/17 00:22:58;;;;;;;12.02;11.23;;;;;;;;;;5072944;28;20693;-70
2022/04/17 00:25:24;;;;;;;12.00;11.20;;;;;;;;;;5064500;28;20028;-70
2022/04/17 00:27:49;;;;;;;12.30;11.50;;;;;;;;;;5072458;28;20482;-70
2022/04/17 00:30:15;;;;;;;13.35;11.52;;;;;;;;;;5072471;28;20115;-70
2022/04/17 00:32:41;;;;;;;12.57;11.57;;;;;;;;;;5077368;28;20630;-70
2022/04/17 00:35:08;;;;;;;12.20;11.30;;;;;;;;;;5061495;28;20082;-70
2022/04/17 00:37:34;;;;;;;12.13;11.23;;;;;;;;;;5074180;28;20032;-70
2022/04/17 00:40:00;;;;;;;12.23;11.05;;;;;;;;;;5076594;28;20042;-70
2022/04/17 00:42:25;;;;;;;12.10;11.00;;;;;;;;;;5071520;28;20058;-70
2022/04/17 00:44:51;;;;;;;11.95;11.05;;;;;;;;;;5073294;28;20431;-71
2022/04/17 00:47:16;;;;;;;11.98;10.98;;;;;;;;;;5081230;28;20057;-71
2022/04/17 00:49:43;;;;;;;11.40;10.60;;;;;;;;;;5077577;28;20047;-70
2022/04/17 00:52:09;;;;;;;12.25;11.23;;;;;;;;;;5080545;28;20028;-70
2022/04/17 00:54:38;;;;;;;12.15;11.13;;;;;;;;;;5069367;28;20117;-70
2022/04/17 00:57:06;;;;;;;11.93;11.13;;;;;;;;;;5075044;28;20043;-70
2022/04/17 00:59:32;;;;;;;12.57;11.65;;;;;;;;;;5055800;28;20035;-70
2022/04/17 01:01:58;;;;;;;13.23;12.00;;;;;;;;;;5069608;28;20067;-70
2022/04/17 01:04:23;;;;;;;12.23;11.13;;;;;;;;;;5060848;28;20060;-70
2022/04/17 01:06:49;;;;;;;11.98;11.07;;;;;;;;;;5058903;28;20033;-70
2022/04/17 01:09:15;;;;;;;12.43;11.43;;;;;;;;;;5076587;28;20136;-69
2022/04/17 01:11:41;;;;;;;12.40;11.30;;;;;;;;;;5066145;28;20035;-70
2022/04/17 01:14:08;;;;;;;12.07;11.25;;;;;;;;;;5071331;28;20403;-70
2022/04/17 01:16:36;;;;;;;11.70;11.00;;;;;;;;;;5081341;28;20036;-69
2022/04/17 01:19:10;;;;;;;11.88;11.07;;;;;;;;;;5073880;28;20075;-70
2022/04/17 01:21:37;;;;;;;12.65;11.70;;;;;;;;;;5059055;28;20044;-70
2022/04/17 01:26:57;;;;;;;12.85;11.88;;;;;;;;;;5075447;28;20115;-70
2022/04/17 01:29:22;;;;;;;12.38;11.50;;;;;;;;;;5077584;28;20521;-71
2022/04/17 01:31:48;;;;;;;12.63;11.73;;;;;;;;;;5072975;28;20036;-70
2022/04/17 01:34:17;;;;;;;12.85;11.73;;;;;;;;;;5070148;28;20047;-70
2022/04/17 01:36:44;;;;;;;12.18;11.27;;;;;;;;;;5072237;28;20035;-70
2022/04/17 01:39:10;;;;;;;12.00;11.27;;;;;;;;;;5052791;28;20052;-70
2022/04/17 01:41:36;;;;;;;12.25;11.27;;;;;;;;;;5079161;28;20032;-70
2022/04/17 01:44:02;;;;;;;12.60;11.60;;;;;;;;;;5078007;28;20039;-70
2022/04/17 01:46:28;;;;;;;13.30;12.20;;;;;;;;;;5076512;28;20543;-70
2022/04/17 01:48:54;;;;;;;12.93;11.90;;;;;;;;;;5078829;28;20040;-70
2022/04/17 01:51:20;;;;;;;13.38;12.20;;;;;;;;;;5078444;28;20487;-70
2022/04/17 01:53:46;;;;;;;12.82;11.82;;;;;;;;;;5076319;28;20028;-70
2022/04/17 01:56:11;;;;;;;13.55;12.45;;;;;;;;;;5077485;28;20085;-70
2022/04/17 01:58:37;;;;;;;12.70;11.82;;;;;;;;;;5083396;28;20039;-70
2022/04/17 02:01:03;;;;;;;13.45;12.45;;;;;;;;;;5078660;28;20492;-70
2022/04/17 02:03:29;;;;;;;13.38;12.10;;;;;;;;;;5080112;28;20039;-70
2022/04/17 02:05:55;;;;;;;13.27;12.30;;;;;;;;;;5080767;28;20036;-70
2022/04/17 02:08:21;;;;;;;12.73;11.82;;;;;;;;;;5078273;28;20036;-70
2022/04/17 02:10:46;;;;;;;12.90;11.90;;;;;;;;;;5062463;28;21253;-70
2022/04/17 02:13:12;;;;;;;13.82;12.63;;;;;;;;;;5080468;28;20071;-70
2022/04/17 02:15:38;;;;;;;13.15;12.15;;;;;;;;;;5073242;28;20483;-69
2022/04/17 02:18:03;;;;;;;13.32;12.23;;;;;;;;;;5072900;28;20052;-70
2022/04/17 02:20:29;;;;;;;14.10;12.23;;;;;;;;;;5079116;28;20040;-69
2022/04/17 02:22:54;;;;;;;13.70;12.60;;;;;;;;;;5075559;28;20148;-69
2022/04/17 02:25:20;;;;;;;13.35;12.35;;;;;;;;;;5072047;28;20055;-70
2022/04/17 02:27:46;;;;;;;13.45;12.43;;;;;;;;;;5082266;28;20075;-70
2022/04/17 02:30:11;;;;;;;13.48;12.27;;;;;;;;;;5073946;28;20039;-70
2022/04/17 02:32:37;;;;;;;13.63;12.60;;;;;;;;;;5078725;28;20519;-69
2022/04/17 02:35:03;;;;;;;12.45;11.65;;;;;;;;;;5083662;28;20509;-70
2022/04/17 02:37:28;;;;;;;12.52;11.63;;;;;;;;;;5071615;28;20107;-70
2022/04/17 02:39:56;;;;;;;13.32;12.32;;;;;;;;;;5071946;28;20781;-70
2022/04/17 02:42:21;;;;;;;12.63;11.63;;;;;;;;;;5075680;28;20036;-70
2022/04/17 02:44:47;;;;;;;13.00;11.80;;;;;;;;;;5079557;28;20033;-70
2022/04/17 02:49:57;;;;;;;13.15;12.00;;;;;;;;;;5079025;28;20044;-70
2022/04/17 02:52:23;;;;;;;13.13;12.13;;;;;;;;;;5070681;28;20028;-69
2022/04/17 02:54:49;;;;;;;13.05;12.05;;;;;;;;;;5075513;28;20032;-70
2022/04/17 02:57:15;;;;;;;12.80;11.70;;;;;;;;;;5075886;28;20502;-69
2022/04/17 02:59:40;;;;;;;13.43;12.43;;;;;;;;;;5061314;28;20066;-70
2022/04/17 03:07:34;;;;;;;13.13;11.95;;;;;;;;;;5071550;28;20101;-70
2022/04/17 03:10:02;;;;;;;13.40;12.20;;;;;;;;;;5076704;28;20036;-70
2022/04/17 03:12:27;;;;;;;12.93;11.90;;;;;;;;;;5078537;28;20040;-70
2022/04/17 03:14:53;;;;;;;13.15;12.07;;;;;;;;;;5072140;28;20028;-70
2022/04/17 03:17:18;;;;;;;12.88;11.85;;;;;;;;;;5082226;28;20098;-70
2022/04/17 03:19:44;;;;;;;12.98;11.98;;;;;;;;;;5073841;28;20107;-71
2022/04/17 03:22:10;;;;;;;12.95;11.93;;;;;;;;;;5074876;28;20040;-70
2022/04/17 03:24:35;;;;;;;12.80;11.77;;;;;;;;;;5071569;28;20044;-69
2022/04/17 03:27:01;;;;;;;13.60;12.23;;;;;;;;;;5080147;28;20071;-70
2022/04/17 03:29:27;;;;;;;13.40;12.30;;;;;;;;;;5075814;28;20035;-70
2022/04/17 03:31:52;;;;;;;12.98;11.88;;;;;;;;;;5073027;28;20201;-69
2022/04/17 03:34:18;;;;;;;12.88;11.70;;;;;;;;;;5072985;28;20036;-69
2022/04/17 03:36:44;;;;;;;13.25;12.07;;;;;;;;;;5073192;28;20514;-70
2022/04/17 03:39:10;;;;;;;13.40;12.02;;;;;;;;;;5077481;28;20123;-70
2022/04/17 03:41:36;;;;;;;12.85;11.95;;;;;;;;;;5071489;28;20124;-70
2022/04/17 03:44:05;;;;;;;13.02;11.88;;;;;;;;;;5062875;28;20489;-70
2022/04/17 03:46:31;;;;;;;12.77;11.85;;;;;;;;;;5077561;28;20067;-69
2022/04/17 03:48:57;;;;;;;13.23;12.20;;;;;;;;;;5075473;28;20036;-70
2022/04/17 03:51:23;;;;;;;13.43;12.32;;;;;;;;;;5073695;28;20039;-70
2022/04/17 03:53:49;;;;;;;13.90;12.70;;;;;;;;;;5072331;28;20036;-70
2022/04/17 03:56:14;;;;;;;13.27;12.23;;;;;;;;;;5069635;28;20515;-70
2022/04/17 03:58:40;;;;;;;13.52;12.43;;;;;;;;;;5068734;28;20051;-69
2022/04/17 04:01:05;;;;;;;14.00;12.73;;;;;;;;;;5072286;28;20637;-70
2022/04/17 04:03:32;;;;;;;13.38;12.48;;;;;;;;;;5078715;28;20691;-70
2022/04/17 04:05:58;;;;;;;13.63;12.63;;;;;;;;;;5072588;28;20032;-70
2022/04/17 04:08:23;;;;;;;16.88;12.45;;;;;;;;;;5068865;28;20036;-70
2022/04/17 04:10:49;;;;;;;13.77;12.73;;;;;;;;;;5063085;28;21855;-71
2022/04/17 04:13:15;;;;;;;12.90;11.82;;;;;;;;;;5079083;28;20063;-69
2022/04/17 04:15:41;;;;;;;13.15;12.15;;;;;;;;;;5073111;28;20077;-70
2022/04/17 04:18:06;;;;;;;13.45;12.43;;;;;;;;;;5076176;28;20040;-73
2022/04/17 04:20:32;;;;;;;13.50;12.32;;;;;;;;;;5078067;28;20040;-73
2022/04/17 04:22:58;;;;;;;12.77;11.82;;;;;;;;;;5072925;28;20033;-72
2022/04/17 04:25:23;;;;;;;12.52;11.63;;;;;;;;;;5071044;28;20067;-73
2022/04/17 04:30:50;;;;;;;13.00;11.95;;;;;;;;;;5044446;28;20068;-73
2022/04/17 04:33:15;;;;;;;12.70;11.77;;;;;;;;;;5066089;28;20044;-72
2022/04/17 04:35:41;;;;;;;12.40;11.50;;;;;;;;;;5062953;28;20032;-73
2022/04/17 04:38:07;;;;;;;12.65;11.65;;;;;;;;;;5077536;28;20439;-73
2022/04/17 04:40:33;;;;;;;13.05;12.05;;;;;;;;;;5075336;28;20040;-73
2022/04/17 04:43:00;;;;;;;12.50;11.60;;;;;;;;;;5089554;22;20124;-65
2022/04/17 04:51:08;;;;;;;13.25;12.13;;;;;;;;;;5046617;28;20099;-65
2022/04/17 04:53:33;;;;;;;13.63;12.32;;;;;;;;;;5027354;28;20072;-66
2022/04/17 04:55:59;;;;;;;12.80;11.70;;;;;;;;;;5044711;28;20590;-65
2022/04/17 04:58:25;;;;;;;12.52;11.63;;;;;;;;;;5043267;28;20049;-65
2022/04/17 05:00:51;;;;;;;13.60;12.35;;;;;;;;;;5045251;28;20086;-65
2022/04/17 05:03:16;;;;;;;13.18;12.07;;;;;;;;;;5047280;28;20045;-65
2022/04/17 05:05:42;;;;;;;13.00;12.00;;;;;;;;;;5048602;28;20103;-66
2022/04/17 05:08:07;;;;;;;13.48;12.35;;;;;;;;;;5043734;28;20037;-65
2022/04/17 05:10:33;;;;;;;13.00;12.07;;;;;;;;;;5043548;28;20678;-65
2022/04/17 05:12:59;;;;;;;12.85;11.93;;;;;;;;;;5044075;28;20079;-66
2022/04/17 05:15:24;;;;;;;12.85;11.95;;;;;;;;;;5045941;28;20045;-65
2022/04/17 05:17:50;;;;;;;13.20;12.20;;;;;;;;;;5047855;28;20132;-66
2022/04/17 05:20:15;;;;;;;12.65;11.65;;;;;;;;;;5047718;28;20049;-65
2022/04/17 05:22:43;;;;;;;13.43;12.38;;;;;;;;;;5048649;28;20057;-65
2022/04/17 05:25:09;;;;;;;13.80;12.60;;;;;;;;;;5104775;28;20044;-65
2022/04/17 05:27:34;;;;;;;12.82;11.98;;;;;;;;;;5106914;28;20081;-65
2022/04/17 05:30:00;;;;;;;13.27;12.32;;;;;;;;;;5107074;28;20032;-65
2022/04/17 05:32:26;;;;;;;13.55;12.48;;;;;;;;;;5107478;28;20027;-65
2022/04/17 05:34:51;;;;;;;12.70;11.80;;;;;;;;;;5109135;28;20034;-66
2022/04/17 05:37:17;;;;;;;12.93;11.90;;;;;;;;;;5108925;28;20040;-66
2022/04/17 05:39:43;;;;;;;12.52;11.63;;;;;;;;;;5110496;28;20027;-66
2022/04/17 05:42:08;;;;;;;12.43;11.50;;;;;;;;;;5110570;28;20034;-66
2022/04/17 05:44:37;;;;;;;12.43;11.43;;;;;;;;;;5107196;28;20178;-66
2022/04/17 05:47:03;;;;;;;12.00;11.10;;;;;;;;;;5105137;28;20788;-67
2022/04/17 05:49:29;;;;;;;11.75;10.95;;;;;;;;;;5112681;28;20024;-66
2022/04/17 05:51:57;;;;;;;11.85;10.95;;;;;;;;;;5099778;28;20118;-68
2022/04/17 05:54:23;;;;;;;11.68;10.88;;;;;;;;;;5111661;28;20038;-67
2022/04/17 05:56:48;;;;;;;11.77;10.90;;;;;;;;;;5109525;28;20044;-66
2022/04/17 05:59:14;;;;;;;12.63;11.70;;;;;;;;;;5107591;28;20524;-67
2022/04/17 06:01:40;;;;;;;12.25;11.48;;;;;;;;;;5104727;28;20039;-69
2022/04/17 06:04:05;;;;;;;12.68;11.88;;;;;;;;;;5105563;28;20031;-66
2022/04/17 06:06:31;;;;;;;12.02;11.23;;;;;;;;;;5102166;28;20512;-66
2022/04/17 06:08:57;;;;;;;12.52;11.40;;;;;;;;;;5103109;28;20031;-66
2022/04/17 06:11:23;;;;;;;12.40;11.60;;;;;;;;;;5109605;28;20035;-66
2022/04/17 06:13:49;;;;;;;12.30;11.32;;;;;;;;;;5106786;28;20020;-67
2022/04/17 06:16:14;;;;;;;12.75;11.68;;;;;;;;;;5106447;28;20067;-67
2022/04/17 06:18:40;;;;;;;12.43;11.63;;;;;;;;;;5104794;28;20040;-67
2022/04/17 06:21:06;;;;;;;12.23;11.43;;;;;;;;;;5107905;28;20055;-67
2022/04/17 06:23:31;;;;;;;13.18;11.98;;;;;;;;;;5104392;28;20034;-67
2022/04/17 06:25:59;;;;;;;11.82;10.93;;;;;;;;;;5105923;28;20047;-68
2022/04/17 06:28:24;;;;;;;12.13;11.32;;;;;;;;;;5105520;28;20118;-67
2022/04/17 06:30:50;;;;;;;12.18;11.32;;;;;;;;;;5107067;28;20127;-67
2022/04/17 06:33:30;;;;;;;12.57;11.77;;;;;;;;;;5104584;28;20118;-67
2022/04/17 06:35:56;;;;;;;12.80;11.80;;;;;;;;;;5106098;28;20115;-67
2022/04/17 06:38:23;;;;;;;12.13;11.23;;;;;;;;;;5110184;28;20045;-67
2022/04/17 06:40:49;;;;;;;12.88;11.90;;;;;;;;;;5106600;28;20023;-67
2022/04/17 06:43:14;;;;;;;12.68;11.75;;;;;;;;;;5102968;28;20040;-66
2022/04/17 06:45:40;;;;;;;15.60;14.35;;;;;;;;;;5106406;28;20028;-67
2022/04/17 06:48:16;;;;;;;13.75;12.77;;;;;;;;;;5108865;28;20382;-67
2022/04/17 06:50:44;;;;;;;14.57;13.50;;;;;;;;;;5107426;28;20059;-66
2022/04/17 06:53:10;;;;;;;14.70;13.60;;;;;;;;;;5089413;28;20126;-66
2022/04/17 06:55:36;;;;;;;12.00;11.20;;;;;;;;;;5103876;28;20110;-68
2022/04/17 06:58:02;;;;;;;16.15;14.85;;;;;;;;;;5106762;28;20714;-67
2022/04/17 07:00:28;;;;;;;12.50;11.60;;;;;;;;;;5102949;28;20061;-67
2022/04/17 07:02:53;;;;;;;13.40;12.50;;;;;;;;;;5106149;28;20028;-67
2022/04/17 07:05:19;;;;;;;13.52;12.30;;;;;;;;;;5106657;28;20040;-67
2022/04/17 07:07:45;;;;;;;13.27;12.38;;;;;;;;;;5110674;28;20027;-66
2022/04/17 07:10:12;;;;;;;11.88;10.98;;;;;;;;;;5072711;28;20038;-67
2022/04/17 07:12:39;;;;;;;13.73;12.63;;;;;;;;;;5105059;28;20028;-66
2022/04/17 07:15:06;;;;;;;12.55;11.68;;;;;;;;;;5106559;28;20035;-66
2022/04/17 07:17:36;;;;;;;11.65;10.95;;;;;;;;;;5103802;28;20031;-66
2022/04/17 07:20:05;;;;;;;12.32;11.45;;;;;;;;;;5068612;28;20093;-66
2022/04/17 07:22:32;;;;;;;12.45;11.50;;;;;;;;;;5102383;28;20059;-67
2022/04/17 07:25:01;;;;;;;12.30;11.50;;;;;;;;;;5104802;28;20108;-67
2022/04/17 07:27:28;;;;;;;12.63;11.73;;;;;;;;;;5089121;28;20028;-67
2022/04/17 07:29:54;;;;;;;12.65;11.75;;;;;;;;;;5105357;28;20063;-66
2022/04/17 07:32:19;;;;;;;12.48;11.60;;;;;;;;;;5105723;28;20038;-67
2022/04/17 07:34:45;;;;;;;12.15;11.40;;;;;;;;;;5102210;28;20039;-67
2022/04/17 07:37:11;;;;;;;13.13;12.32;;;;;;;;;;5106852;28;20040;-67
2022/04/17 07:39:36;;;;;;;13.35;12.35;;;;;;;;;;5106724;28;20156;-67
2022/04/17 07:42:03;;;;;;;13.35;12.32;;;;;;;;;;5106920;28;20043;-66
2022/04/17 07:44:29;;;;;;;13.85;12.93;;;;;;;;;;5103606;28;20040;-67
2022/04/17 07:46:55;;;;;;;12.80;11.80;;;;;;;;;;5106270;28;20023;-67
2022/04/17 07:49:26;;;;;;;13.40;12.50;;;;;;;;;;5107315;28;20035;-67
2022/04/17 07:51:51;;;;;;;12.82;11.90;;;;;;;;;;5100048;28;20499;-67
2022/04/17 07:54:17;;;;;;;12.68;11.88;;;;;;;;;;5103601;28;20035;-67
2022/04/17 07:56:42;;;;;;;13.57;12.65;;;;;;;;;;5108329;28;20027;-67
2022/04/17 07:59:08;;;;;;;12.05;11.23;;;;;;;;;;5101553;28;20092;-67
2022/04/17 08:01:39;;;;;;;12.43;11.73;;;;;;;;;;5102030;28;20027;-67
2022/04/17 08:04:05;;;;;;;12.85;11.85;;;;;;;;;;5101685;28;20031;-67
2022/04/17 08:06:31;;;;;;;11.77;11.07;;;;;;;;;;5102786;28;20041;-67
2022/04/17 08:08:57;;;;;;;12.35;11.65;;;;;;;;;;5102434;28;20112;-67
2022/04/17 08:11:24;;;;;;;12.18;11.27;;;;;;;;;;5101936;28;20541;-67
2022/04/17 08:13:49;;;;;;;12.05;11.27;;;;;;;;;;5104005;28;20073;-67
2022/04/17 08:16:17;;;;;;;12.00;11.15;;;;;;;;;;5100702;28;20158;-67
2022/04/17 08:18:43;;;;;;;12.07;11.38;;;;;;;;;;5101929;28;20094;-67
2022/04/17 08:21:08;;;;;;;13.40;12.13;;;;;;;;;;5104387;28;20499;-67
2022/04/17 08:23:37;;;;;;;12.20;11.48;;;;;;;;;;5101903;28;20695;-66
2022/04/17 08:26:03;;;;;;;11.85;10.98;;;;;;;;;;5102895;28;20063;-66
2022/04/17 08:28:30;;;;;;;12.18;11.38;;;;;;;;;;5100536;28;20586;-67
2022/04/17 08:30:56;;;;;;;11.63;10.82;;;;;;;;;;5103287;28;20028;-67
2022/04/17 08:33:24;;;;;;;12.52;11.73;;;;;;;;;;5099148;28;20089;-67
2022/04/17 08:36:15;;;;;;;11.90;11.10;;;;;;;;;;5101884;28;20035;-66
2022/04/17 08:38:42;;;;;;;11.82;11.13;;;;;;;;;;5099622;28;20030;-67
2022/04/17 08:41:10;;;;;;;12.70;11.90;;;;;;;;;;5105257;28;20409;-67
2022/04/17 08:43:37;;;;;;;12.77;11.88;;;;;;;;;;5101946;28;20555;-67
2022/04/17 08:46:03;;;;;;;12.45;11.65;;;;;;;;;;5100038;28;20046;-67
2022/04/17 08:48:30;;;;;;;13.70;12.70;;;;;;;;;;5105629;28;20192;-67
2022/04/17 08:50:57;;;;;;;12.85;11.95;;;;;;;;;;5107662;28;20653;-67
2022/04/17 08:53:23;;;;;;;13.27;12.27;;;;;;;;;;5103222;28;20053;-67
2022/04/17 08:55:50;;;;;;;13.02;11.98;;;;;;;;;;5109040;28;20040;-67
2022/04/17 08:58:16;;;;;;;11.65;10.95;;;;;;;;;;5109863;28;20033;-67
2022/04/17 09:00:41;;;;;;;12.38;11.50;;;;;;;;;;5104410;28;20036;-67
2022/04/17 09:03:09;;;;;;;13.98;12.88;;;;;;;;;;5105345;28;20035;-67
2022/04/17 09:05:37;;;;;;;12.10;11.30;;;;;;;;;;5101393;28;20043;-67
2022/04/17 09:08:14;;;;;;;11.40;10.60;;;;;;;;;;5106410;28;20054;-67
2022/04/17 09:10:40;;;;;;;12.80;11.68;;;;;;;;;;5102265;28;20038;-67
2022/04/17 09:13:06;;;;;;;11.60;10.88;;;;;;;;;;5105379;28;20043;-67
2022/04/17 09:15:33;;;;;;;11.35;10.50;;;;;;;;;;5107338;28;20036;-67
2022/04/17 09:18:00;;;;;;;12.90;12.00;;;;;;;;;;5103246;28;20034;-67
2022/04/17 09:20:27;;;;;;;11.75;11.05;;;;;;;;;;5102674;28;20114;-67
2022/04/17 09:22:56;;;;;;;11.98;11.18;;;;;;;;;;5103323;28;20040;-68
2022/04/17 09:25:23;;;;;;;11.60;10.73;;;;;;;;;;5102899;28;20039;-68
2022/04/17 09:28:04;;;;;;;11.88;10.95;;;;;;;;;;5105159;28;20040;-67
2022/04/17 09:30:35;;;;;;;12.13;11.32;;;;;;;;;;5104734;22;20123;-69
2022/04/17 09:33:12;;;;;;;11.60;10.80;;;;;;;;;;5083110;28;20039;-69
2022/04/17 09:35:38;;;;;;;11.30;10.50;;;;;;;;;;5087214;28;20114;-69
2022/04/17 09:38:06;;;;;;;11.75;10.82;;;;;;;;;;5090005;28;20040;-69
2022/04/17 09:40:32;;;;;;;11.30;10.60;;;;;;;;;;5091071;28;20115;-69
2022/04/17 09:43:12;;;;;;;11.15;10.35;;;;;;;;;;5091014;28;20032;-69
2022/04/17 09:45:57;;;;;;;11.05;10.35;;;;;;;;;;5085939;28;20040;-69
2022/04/17 09:48:23;;;;;;;11.05;10.30;;;;;;;;;;5085959;28;20057;-69
2022/04/17 09:50:49;;;;;;;11.05;10.07;;;;;;;;;;5086254;28;20039;-69
2022/04/17 09:53:37;;;;;;;10.82;10.13;;;;;;;;;;5085628;28;20062;-69
2022/04/17 09:56:10;;;;;;;11.02;10.25;;;;;;;;;;5077593;28;20031;-69
2022/04/17 09:58:50;;;;;;;11.07;10.15;;;;;;;;;;5087503;28;20052;-69
2022/04/17 10:01:18;;;;;;;11.02;10.23;;;;;;;;;;5085372;28;20051;-69
2022/04/17 10:03:46;;;;;;;10.90;9.98;;;;;;;;;;5084300;28;20194;-69
2022/04/17 10:06:12;;;;;;;11.48;9.95;;;;;;;;;;5086095;28;20134;-69
2022/04/17 10:08:42;;;;;;;10.95;10.07;;;;;;;;;;5088256;28;20131;-69
2022/04/17 10:11:07;;;;;;;12.00;11.15;;;;;;;;;;5086036;28;22061;-69
2022/04/17 10:14:11;;;;;;;11.13;10.30;;;;;;;;;;5041053;28;20136;-69
2022/04/17 10:16:41;;;;;;;10.80;10.10;;;;;;;;;;5035361;28;20112;-69
2022/04/17 10:19:12;;;;;;;10.23;9.52;;;;;;;;;;5031869;28;20079;-68
2022/04/17 10:21:39;;;;;;;10.63;9.93;;;;;;;;;;5035970;28;20544;-68
2022/04/17 10:24:06;;;;;;;10.52;9.82;;;;;;;;;;5030708;28;20045;-69
2022/04/17 10:26:37;;;;;;;10.50;9.90;;;;;;;;;;5036085;28;20039;-69
2022/04/17 10:29:06;;;;;;;11.27;10.57;;;;;;;;;;5032974;28;20130;-69
2022/04/17 10:32:01;;;;;;;;;;;;;;;;;;5041476;28;20032;-69
2022/04/17 10:35:10;;;;;;;11.35;10.43;;;;;;;;;;4989175;28;19918;-69
2022/04/17 10:38:12;;;;;;;10.38;9.68;;;;;;;;;;4994759;28;20044;-69
2022/04/17 10:40:38;;;;;;;10.85;10.15;;;;;;;;;;5079236;28;20055;-69
2022/04/17 10:43:05;;;;;;;10.75;9.88;;;;;;;;;;5091682;28;20036;-69
2022/04/17 10:45:31;;;;;;;9.68;9.02;;;;;;;;;;5093203;28;20214;-69
2022/04/17 10:48:10;;;;;;;10.18;9.57;;;;;;;;;;5090243;28;20039;-70
2022/04/17 10:50:48;;;;;;;10.07;9.38;;;;;;;;;;5092721;28;20054;-70
2022/04/17 10:53:30;;;;;;;10.35;9.65;;;;;;;;;;5090042;28;20097;-71
2022/04/17 10:56:10;;;;;;;9.88;9.27;;;;;;;;;;5088383;28;20074;-69
2022/04/17 10:58:40;;;;;;;9.48;8.88;;;;;;;;;;5077735;28;20179;-70
2022/04/17 11:01:07;;;;;;;10.35;9.40;;;;;;;;;;5084678;28;20032;-69
2022/04/17 11:03:36;;;;;;;11.30;10.50;;;;;;;;;;5083496;28;20047;-69
2022/04/17 11:06:20;;;;;;;;;;;;;;;;;;5085671;28;20044;-69
2022/04/17 11:08:56;;;;;;;10.90;10.20;;;;;;;;;;5084689;28;20354;-69
2022/04/17 11:11:22;;;;;;;10.05;9.45;;;;;;;;;;5087813;28;20062;-69
2022/04/17 11:14:10;;;;;;;9.82;9.23;;;;;;;;;;5086611;28;20059;-69
2022/04/17 11:16:44;;;;;;;9.43;8.77;;;;;;;;;;5079503;28;20050;-68
2022/04/17 11:19:12;;;;;;;10.63;9.93;;;;;;;;;;5084003;28;20028;-69
2022/04/17 11:21:42;;;;;;;10.23;9.63;;;;;;;;;;5087050;28;20028;-69
2022/04/17 11:24:08;;;;;;;11.38;10.48;;;;;;;;;;5084817;28;20077;-69
2022/04/17 11:26:55;;;;;;;10.63;10.02;;;;;;;;;;5086941;28;20044;-69
2022/04/17 11:29:36;;;;;;;9.90;9.25;;;;;;;;;;5086722;28;20040;-69
2022/04/17 11:32:25;;;;;;;10.35;9.65;;;;;;;;;;5083132;28;20123;-69
2022/04/17 11:34:54;;;;;;;11.27;10.32;;;;;;;;;;5086206;28;20064;-69
2022/04/17 11:37:20;;;;;;;10.63;9.93;;;;;;;;;;5086588;28;20039;-70
2022/04/17 11:39:46;;;;;;;11.15;10.45;;;;;;;;;;5082507;28;20044;-70
2022/04/17 11:42:12;;;;;;;11.18;10.38;;;;;;;;;;5085876;28;20038;-69
2022/04/17 11:44:45;;;;;;;11.20;10.50;;;;;;;;;;5085755;28;20067;-69
2022/04/17 11:47:19;;;;;;;11.07;10.38;;;;;;;;;;5082373;28;20115;-70
2022/04/17 11:49:46;;;;;;;11.13;10.43;;;;;;;;;;5087475;28;20059;-70
2022/04/17 11:52:13;;;;;;;10.73;10.02;;;;;;;;;;5088228;28;20089;-70
2022/04/17 11:54:39;;;;;;;10.80;10.10;;;;;;;;;;5086981;28;20036;-68
2022/04/17 11:57:06;;;;;;;11.60;10.90;;;;;;;;;;5082796;28;20055;-69
2022/04/17 11:59:48;;;;;;;11.15;10.35;;;;;;;;;;5085930;28;20062;-69
2022/04/17 12:02:18;;;;;;;11.32;10.18;;;;;;;;;;5085631;28;20089;-69
2022/04/17 12:04:45;;;;;;;11.07;10.27;;;;;;;;;;5072860;28;20147;-69
2022/04/17 12:07:12;;;;;;;11.20;10.50;;;;;;;;;;5080272;28;20038;-69
2022/04/17 12:09:38;;;;;;;11.48;10.68;;;;;;;;;;5083965;28;20051;-69
2022/04/17 12:12:11;;;;;;;11.35;10.32;;;;;;;;;;5086164;28;20097;-69
2022/04/17 12:14:38;;;;;;;11.15;10.45;;;;;;;;;;5066666;28;20039;-70
2022/04/17 12:17:03;;;;;;;10.85;10.15;;;;;;;;;;5085918;28;20451;-69
2022/04/17 12:19:29;;;;;;;10.85;10.25;;;;;;;;;;5083869;28;20034;-70
2022/04/17 12:21:55;;;;;;;11.38;10.68;;;;;;;;;;5077445;28;20036;-69
2022/04/17 12:24:22;;;;;;;11.30;10.60;;;;;;;;;;5083746;28;20063;-69
2022/04/17 12:26:48;;;;;;;10.98;10.27;;;;;;;;;;5086663;28;20035;-69
2022/04/17 12:29:15;;;;;;;11.35;10.63;;;;;;;;;;5086508;28;20036;-69
2022/04/17 12:31:41;;;;;;;11.02;10.32;;;;;;;;;;5085112;28;20403;-69
2022/04/17 12:34:19;;;;;;;10.63;10.02;;;;;;;;;;5086725;28;20036;-70
2022/04/17 12:36:48;;;;;;;10.85;10.15;;;;;;;;;;5087456;28;20043;-69
2022/04/17 12:39:15;;;;;;;11.00;10.15;;;;;;;;;;5087566;28;20040;-69
2022/04/17 12:41:42;;;;;;;11.35;10.57;;;;;;;;;;5080958;28;20043;-69
2022/04/17 12:44:09;;;;;;;10.88;10.07;;;;;;;;;;5087093;28;20110;-70
2022/04/17 12:46:36;;;;;;;10.00;9.40;;;;;;;;;;5087564;28;20062;-70
2022/04/17 12:49:05;;;;;;;10.95;10.35;;;;;;;;;;5086287;28;20040;-69
2022/04/17 12:51:31;;;;;;;11.38;10.52;;;;;;;;;;5086689;28;20066;-70
2022/04/17 12:53:56;;;;;;;10.95;10.27;;;;;;;;;;5087310;28;20055;-70
2022/04/17 12:56:26;;;;;;;10.73;10.02;;;;;;;;;;5087837;28;20035;-70
2022/04/17 12:58:53;;;;;;;10.25;9.55;;;;;;;;;;5081659;28;20335;-69
2022/04/17 13:01:21;;;;;;;11.00;10.30;;;;;;;;;;5087119;28;20044;-70
2022/04/17 13:03:48;;;;;;;10.88;10.18;;;;;;;;;;5085891;28;20043;-70
2022/04/17 13:06:22;;;;;;;10.73;10.13;;;;;;;;;;5084161;28;20236;-70
2022/04/17 13:09:12;;;;;;;10.40;9.80;;;;;;;;;;5086559;28;20119;-70
2022/04/17 13:11:43;;;;;;;11.45;10.70;;;;;;;;;;5087601;28;20039;-69
2022/04/17 13:14:09;;;;;;;10.00;9.40;;;;;;;;;;5087123;28;20390;-70
2022/04/17 13:16:47;;;;;;;10.65;9.95;;;;;;;;;;5085669;28;20032;-69
2022/04/17 13:19:12;;;;;;;11.27;10.57;;;;;;;;;;5085162;28;20071;-69
2022/04/17 13:21:38;;;;;;;10.43;9.73;;;;;;;;;;5086452;28;20212;-70
2022/04/17 13:24:04;;;;;;;11.07;10.38;;;;;;;;;;5085379;28;20035;-70
2022/04/17 13:26:29;;;;;;;10.38;9.68;;;;;;;;;;5086719;28;20495;-70
2022/04/17 13:28:55;;;;;;;9.93;9.32;;;;;;;;;;5086679;28;20061;-69
2022/04/17 13:31:21;;;;;;;10.60;9.82;;;;;;;;;;5085523;28;20032;-69
2022/04/17 13:33:46;;;;;;;10.75;10.05;;;;;;;;;;5085896;28;20035;-69
2022/04/17 13:36:12;;;;;;;10.90;10.10;;;;;;;;;;5087687;28;20231;-70
2022/04/17 13:38:38;;;;;;;10.57;9.82;;;;;;;;;;5090732;28;20070;-70
2022/04/17 13:41:05;;;;;;;10.30;9.60;;;;;;;;;;5087643;28;20039;-70
2022/04/17 13:43:31;;;;;;;11.55;10.38;;;;;;;;;;5090075;28;20039;-70
2022/04/17 13:45:58;;;;;;;10.52;9.82;;;;;;;;;;5090871;28;20054;-69
2022/04/17 13:48:24;;;;;;;11.07;10.20;;;;;;;;;;5090072;28;20343;-70
2022/04/17 13:50:51;;;;;;;10.52;9.90;;;;;;;;;;5088628;28;20554;-69
2022/04/17 13:53:17;;;;;;;10.25;9.65;;;;;;;;;;5090039;28;20123;-70
2022/04/17 13:55:43;;;;;;;11.43;10.68;;;;;;;;;;5090404;28;20123;-69
2022/04/17 13:58:09;;;;;;;10.02;9.43;;;;;;;;;;5089570;28;20336;-69
2022/04/17 14:00:35;;;;;;;10.10;9.50;;;;;;;;;;5089226;28;20410;-69
2022/04/17 14:03:01;;;;;;;10.80;10.10;;;;;;;;;;5088897;28;20036;-69
2022/04/17 14:05:27;;;;;;;11.70;10.68;;;;;;;;;;5088682;28;20044;-69
2022/04/17 14:07:53;;;;;;;11.18;10.38;;;;;;;;;;5089746;28;20049;-69
2022/04/17 14:10:19;;;;;;;10.60;9.80;;;;;;;;;;5090812;28;20084;-69
2022/04/17 14:12:45;;;;;;;10.90;10.20;;;;;;;;;;5089932;28;20114;-69
2022/04/17 14:15:11;;;;;;;9.80;9.10;;;;;;;;;;5087337;28;20032;-69
2022/04/17 14:17:37;;;;;;;10.73;9.98;;;;;;;;;;5089509;28;20047;-69
2022/04/17 14:20:03;;;;;;;10.43;9.73;;;;;;;;;;5090342;28;20050;-69
2022/04/17 14:22:28;;;;;;;10.05;9.45;;;;;;;;;;5088613;28;20050;-69
2022/04/17 14:24:54;;;;;;;10.52;9.73;;;;;;;;;;5089941;28;20403;-70
2022/04/17 14:27:21;;;;;;;10.60;9.85;;;;;;;;;;5091942;28;20375;-69
2022/04/17 14:29:47;;;;;;;10.30;9.70;;;;;;;;;;5089106;28;20410;-69
2022/04/17 14:32:13;;;;;;;10.05;9.45;;;;;;;;;;5086553;28;20032;-69
2022/04/17 14:34:39;;;;;;;10.52;9.82;;;;;;;;;;5088173;28;20028;-71
2022/04/17 14:37:05;;;;;;;10.73;10.02;;;;;;;;;;5090066;28;20036;-70
2022/04/17 14:39:30;;;;;;;10.93;10.23;;;;;;;;;;5088568;28;20121;-70
2022/04/17 14:41:56;;;;;;;10.80;10.10;;;;;;;;;;5089494;28;20064;-69
2022/04/17 14:44:22;;;;;;;10.40;9.60;;;;;;;;;;5089881;28;20031;-69